createdAt,value
2017-11-03T00:00:07.085Z,10.31
2017-11-03T00:02:34.749Z,10.31
2017-11-03T00:05:02.319Z,10.31
2017-11-03T00:07:29.883Z,10.30
2017-11-03T00:09:57.433Z,10.31
2017-11-03T00:12:25.010Z,10.30
2017-11-03T00:14:52.550Z,10.29
2017-11-03T00:17:20.126Z,10.29
2017-11-03T00:19:47.683Z,10.29
2017-11-03T00:22:15.278Z,10.28
2017-11-03T00:24:42.878Z,10.27
2017-11-03T00:27:10.444Z,10.24
2017-11-03T00:29:37.989Z,10.24
2017-11-03T00:32:05.542Z,10.23
2017-11-03T00:34:33.103Z,10.21
2017-11-03T00:37:00.689Z,10.19
2017-11-03T00:39:28.232Z,10.18
2017-11-03T00:41:55.784Z,10.17
2017-11-03T00:44:23.362Z,10.16
2017-11-03T00:46:50.911Z,10.16
2017-11-03T00:49:18.508Z,10.15
2017-11-03T00:51:46.065Z,10.15
2017-11-03T00:54:13.726Z,10.15
2017-11-03T00:56:41.305Z,10.14
2017-11-03T00:59:08.902Z,10.15
2017-11-03T01:01:36.703Z,10.15
2017-11-03T01:04:04.268Z,10.14
2017-11-03T01:06:31.840Z,10.13
2017-11-03T01:08:59.389Z,10.11
2017-11-03T01:11:26.941Z,10.11
2017-11-03T01:13:54.521Z,10.11
2017-11-03T01:16:22.161Z,10.11
2017-11-03T01:18:49.731Z,10.10
2017-11-03T01:23:51.160Z,10.08
2017-11-03T01:26:18.791Z,10.09
2017-11-03T01:28:46.356Z,10.08
2017-11-03T01:31:13.919Z,10.09
2017-11-03T01:33:41.476Z,10.06
2017-11-03T01:36:09.287Z,10.06
2017-11-03T01:38:36.832Z,10.05
2017-11-03T01:41:04.397Z,10.04
2017-11-03T01:43:31.965Z,10.04
2017-11-03T01:45:59.513Z,10.03
2017-11-03T01:48:27.112Z,10.02
2017-11-03T01:50:54.654Z,10.02
2017-11-03T01:53:22.225Z,9.99
2017-11-03T01:55:49.809Z,9.99
2017-11-03T01:58:18.179Z,9.98
2017-11-03T02:00:45.828Z,9.97
2017-11-03T02:03:13.407Z,9.97
2017-11-03T02:05:40.969Z,9.95
2017-11-03T02:08:08.511Z,9.93
2017-11-03T02:10:36.068Z,9.91
2017-11-03T02:13:03.631Z,9.89
2017-11-03T02:15:31.657Z,9.87
2017-11-03T02:17:59.560Z,9.85
2017-11-03T02:20:27.113Z,9.83
2017-11-03T02:22:54.681Z,9.82
2017-11-03T02:25:22.257Z,9.81
2017-11-03T02:27:49.783Z,9.80
2017-11-03T02:30:17.348Z,9.80
2017-11-03T02:32:44.890Z,9.78
2017-11-03T02:35:12.436Z,9.78
2017-11-03T02:37:40.009Z,9.75
2017-11-03T02:40:07.574Z,9.77
2017-11-03T02:42:35.232Z,9.78
2017-11-03T02:45:02.780Z,9.80
2017-11-03T02:47:30.410Z,9.80
2017-11-03T02:49:57.985Z,9.80
2017-11-03T02:52:25.529Z,9.80
2017-11-03T02:54:53.101Z,9.78
2017-11-03T02:57:20.664Z,9.76
2017-11-03T02:59:48.249Z,9.74
2017-11-03T03:02:15.781Z,9.74
2017-11-03T03:04:43.573Z,9.75
2017-11-03T03:07:11.141Z,9.75
2017-11-03T03:09:38.686Z,9.74
2017-11-03T03:12:06.387Z,9.71
2017-11-03T03:14:33.936Z,9.69
2017-11-03T03:17:01.476Z,9.68
2017-11-03T03:19:29.106Z,9.69
2017-11-03T03:21:56.671Z,9.67
2017-11-03T03:24:24.345Z,9.67
2017-11-03T03:26:52.066Z,9.66
2017-11-03T03:29:19.625Z,9.65
2017-11-03T03:31:47.184Z,9.66
2017-11-03T03:34:14.735Z,9.65
2017-11-03T03:36:42.378Z,9.65
2017-11-03T03:39:09.931Z,9.64
2017-11-03T03:41:37.646Z,9.63
2017-11-03T03:44:05.220Z,9.63
2017-11-03T03:46:32.912Z,9.64
2017-11-03T03:49:00.441Z,9.63
2017-11-03T03:51:28.020Z,9.61
2017-11-03T03:53:55.565Z,9.62
2017-11-03T03:56:23.123Z,9.61
2017-11-03T03:58:50.674Z,9.60
2017-11-03T04:01:18.276Z,9.59
2017-11-03T04:03:45.897Z,9.58
2017-11-03T04:06:13.460Z,9.56
2017-11-03T04:08:41.021Z,9.55
2017-11-03T04:11:08.862Z,9.54
2017-11-03T04:13:36.419Z,9.52
2017-11-03T04:16:03.978Z,9.51
2017-11-03T04:18:31.559Z,9.52
2017-11-03T04:20:59.118Z,9.52
2017-11-03T04:23:27.079Z,9.51
2017-11-03T04:25:54.612Z,9.50
2017-11-03T04:28:22.178Z,9.50
2017-11-03T04:30:49.862Z,9.47
2017-11-03T04:33:17.446Z,9.47
2017-11-03T04:35:45.167Z,9.46
2017-11-03T04:38:12.710Z,9.45
2017-11-03T04:40:40.238Z,9.48
2017-11-03T04:43:07.813Z,9.49
2017-11-03T04:45:35.394Z,9.49
2017-11-03T04:48:03.268Z,9.48
2017-11-03T04:50:30.883Z,9.47
2017-11-03T04:52:58.428Z,9.46
2017-11-03T04:55:25.985Z,9.47
2017-11-03T04:57:53.524Z,9.49
2017-11-03T05:00:21.379Z,9.49
2017-11-03T05:02:48.960Z,9.48
2017-11-03T05:05:16.505Z,9.48
2017-11-03T05:07:44.066Z,9.48
2017-11-03T05:10:11.606Z,9.47
2017-11-03T05:12:39.184Z,9.45
2017-11-03T05:15:06.727Z,9.44
2017-11-03T05:17:34.714Z,9.44
2017-11-03T05:20:02.268Z,9.44
2017-11-03T05:22:29.844Z,9.44
2017-11-03T05:24:57.425Z,9.43
2017-11-03T05:27:24.977Z,9.43
2017-11-03T05:29:52.551Z,9.41
2017-11-03T05:32:20.090Z,9.39
2017-11-03T05:34:47.940Z,9.38
2017-11-03T05:37:15.548Z,9.37
2017-11-03T05:39:43.085Z,9.37
2017-11-03T05:42:10.652Z,9.36
2017-11-03T05:44:38.214Z,9.37
2017-11-03T05:47:06.142Z,9.37
2017-11-03T05:49:33.678Z,9.36
2017-11-03T05:52:01.236Z,9.34
2017-11-03T05:54:28.937Z,9.33
2017-11-03T05:56:56.571Z,9.30
2017-11-03T05:59:24.137Z,9.30
2017-11-03T06:01:51.722Z,9.29
2017-11-03T06:04:19.293Z,9.31
2017-11-03T06:06:46.835Z,9.33
2017-11-03T06:09:14.355Z,9.36
2017-11-03T06:11:41.921Z,9.36
2017-11-03T06:14:09.478Z,9.36
2017-11-03T06:16:37.372Z,9.37
2017-11-03T06:19:05.011Z,9.35
2017-11-03T06:21:32.568Z,9.35
2017-11-03T06:24:00.138Z,9.36
2017-11-03T06:26:27.684Z,9.37
2017-11-03T06:28:55.288Z,9.37
2017-11-03T06:31:22.822Z,9.36
2017-11-03T06:33:50.391Z,9.35
2017-11-03T06:36:18.175Z,9.36
2017-11-03T06:38:45.720Z,9.35
2017-11-03T06:41:13.583Z,9.35
2017-11-03T06:43:41.118Z,9.35
2017-11-03T06:46:08.663Z,9.34
2017-11-03T06:48:36.260Z,9.35
2017-11-03T06:51:03.804Z,9.36
2017-11-03T06:53:31.410Z,9.36
2017-11-03T06:55:59.175Z,9.37
2017-11-03T06:58:27.137Z,9.40
2017-11-03T07:00:54.692Z,9.43
2017-11-03T07:03:22.240Z,9.47
2017-11-03T07:05:49.841Z,9.50
2017-11-03T07:08:17.389Z,9.53
2017-11-03T07:10:44.957Z,9.55
2017-11-03T07:13:12.521Z,9.58
2017-11-03T07:15:40.084Z,9.62
2017-11-03T07:18:07.663Z,9.64
2017-11-03T07:20:35.220Z,9.67
2017-11-03T07:23:02.799Z,9.70
2017-11-03T07:25:30.332Z,9.73
2017-11-03T07:27:57.889Z,9.74
2017-11-03T07:30:25.444Z,9.77
2017-11-03T07:32:53.379Z,9.81
2017-11-03T07:35:21.087Z,9.84
2017-11-03T07:37:49.189Z,9.88
2017-11-03T07:40:16.780Z,9.91
2017-11-03T07:42:44.337Z,9.93
2017-11-03T07:45:12.894Z,9.97
2017-11-03T07:47:40.488Z,10.01
2017-11-03T07:50:08.076Z,10.04
2017-11-03T07:52:35.629Z,10.07
2017-11-03T07:55:03.562Z,10.13
2017-11-03T07:57:31.101Z,10.18
2017-11-03T07:59:58.651Z,10.21
2017-11-03T08:02:26.236Z,10.22
2017-11-03T08:04:53.773Z,10.24
2017-11-03T08:07:21.359Z,10.23
2017-11-03T08:09:48.916Z,10.24
2017-11-03T08:12:16.554Z,10.21
2017-11-03T08:14:44.189Z,10.21
2017-11-03T08:17:11.757Z,10.23
2017-11-03T08:19:39.318Z,10.27
2017-11-03T08:22:06.897Z,10.31
2017-11-03T08:24:34.503Z,10.35
2017-11-03T08:27:02.087Z,10.42
2017-11-03T08:29:29.679Z,10.45
2017-11-03T08:31:57.242Z,10.49
2017-11-03T08:34:24.813Z,10.54
2017-11-03T08:36:52.403Z,10.58
2017-11-03T08:39:19.978Z,10.65
2017-11-03T08:41:47.565Z,10.71
2017-11-03T08:44:15.198Z,10.79
2017-11-03T08:46:42.773Z,10.85
2017-11-03T08:49:10.344Z,10.91
2017-11-03T08:51:37.898Z,10.97
2017-11-03T08:54:05.644Z,11.01
2017-11-03T08:56:33.223Z,11.05
2017-11-03T08:59:01.103Z,11.07
2017-11-03T09:01:28.695Z,11.09
2017-11-03T09:03:56.304Z,11.09
2017-11-03T09:06:24.042Z,11.13
2017-11-03T09:08:51.639Z,11.13
2017-11-03T09:11:19.217Z,11.15
2017-11-03T09:13:46.785Z,11.18
2017-11-03T09:16:14.346Z,11.16
2017-11-03T09:18:42.021Z,11.16
2017-11-03T09:21:09.569Z,11.19
2017-11-03T09:23:37.162Z,11.23
2017-11-03T09:26:04.728Z,11.31
2017-11-03T09:28:32.304Z,11.37
2017-11-03T09:30:59.894Z,11.42
2017-11-03T09:33:27.448Z,11.48
2017-11-03T09:35:55.049Z,11.54
2017-11-03T09:38:22.594Z,11.58
2017-11-03T09:40:50.147Z,11.65
2017-11-03T09:43:17.788Z,11.72
2017-11-03T09:45:45.356Z,11.73
2017-11-03T09:48:12.935Z,11.77
2017-11-03T09:50:40.491Z,11.87
2017-11-03T09:53:08.394Z,11.96
2017-11-03T09:55:35.940Z,12.04
2017-11-03T09:58:03.493Z,12.07
2017-11-03T10:00:31.060Z,12.07
2017-11-03T10:02:58.630Z,12.11
2017-11-03T10:05:26.202Z,12.17
2017-11-03T10:07:53.753Z,12.25
2017-11-03T10:10:21.346Z,12.26
2017-11-03T10:12:48.899Z,12.32
2017-11-03T10:15:16.460Z,12.38
2017-11-03T10:17:44.042Z,12.44
2017-11-03T10:20:11.577Z,12.49
2017-11-03T10:22:39.164Z,12.51
2017-11-03T10:25:06.731Z,12.54
2017-11-03T10:27:34.340Z,12.52
2017-11-03T10:30:01.905Z,12.42
2017-11-03T10:32:29.467Z,12.36
2017-11-03T10:34:57.063Z,12.36
2017-11-03T10:37:24.742Z,12.42
2017-11-03T10:39:52.330Z,12.40
2017-11-03T10:42:19.985Z,12.40
2017-11-03T10:44:47.600Z,12.47
2017-11-03T10:47:15.186Z,12.48
2017-11-03T10:49:42.733Z,12.52
2017-11-03T10:52:10.314Z,12.59
2017-11-03T10:54:37.857Z,12.62
2017-11-03T10:57:05.766Z,12.64
2017-11-03T10:59:33.381Z,12.67
2017-11-03T11:02:00.997Z,12.62
2017-11-03T11:04:28.583Z,12.64
2017-11-03T11:06:56.153Z,12.67
2017-11-03T11:09:23.882Z,12.64
2017-11-03T11:11:51.429Z,12.53
2017-11-03T11:14:18.967Z,12.56
2017-11-03T11:16:46.538Z,12.57
2017-11-03T11:19:14.115Z,12.57
2017-11-03T11:21:41.983Z,12.59
2017-11-03T11:24:09.522Z,12.62
2017-11-03T11:26:37.071Z,12.64
2017-11-03T11:29:04.682Z,12.62
2017-11-03T11:31:32.240Z,12.69
2017-11-03T11:33:59.819Z,12.74
2017-11-03T11:36:27.368Z,12.64
2017-11-03T11:38:55.016Z,12.66
2017-11-03T11:41:22.590Z,12.74
2017-11-03T11:43:50.137Z,12.80
2017-11-03T11:46:17.704Z,12.88
2017-11-03T11:48:45.277Z,12.87
2017-11-03T11:51:12.919Z,12.91
2017-11-03T11:53:40.489Z,12.94
2017-11-03T11:56:08.535Z,13.00
2017-11-03T11:58:36.595Z,13.06
2017-11-03T12:01:04.154Z,13.13
2017-11-03T12:03:31.825Z,13.13
2017-11-03T12:05:59.391Z,13.17
2017-11-03T12:08:26.943Z,13.20
2017-11-03T12:10:54.492Z,13.17
2017-11-03T12:13:22.050Z,13.15
2017-11-03T12:15:49.617Z,13.09
2017-11-03T12:18:17.339Z,13.13
2017-11-03T12:20:44.897Z,13.17
2017-11-03T12:23:12.565Z,13.00
2017-11-03T12:25:40.250Z,12.96
2017-11-03T12:28:07.838Z,12.97
2017-11-03T12:30:35.393Z,13.02
2017-11-03T12:33:02.976Z,13.10
2017-11-03T12:35:30.572Z,13.16
2017-11-03T12:37:58.149Z,13.06
2017-11-03T12:40:25.718Z,13.07
2017-11-03T12:42:53.285Z,13.11
2017-11-03T12:45:20.835Z,13.16
2017-11-03T12:47:48.524Z,13.21
2017-11-03T12:50:16.074Z,13.26
2017-11-03T12:52:44.073Z,13.29
2017-11-03T12:55:11.648Z,13.25
2017-11-03T12:57:39.238Z,13.16
2017-11-03T13:00:06.794Z,13.23
2017-11-03T13:02:34.358Z,13.24
2017-11-03T13:05:01.949Z,13.23
2017-11-03T13:07:29.506Z,13.16
2017-11-03T13:09:57.083Z,13.19
2017-11-03T13:12:24.780Z,13.21
2017-11-03T13:14:52.361Z,13.27
2017-11-03T13:17:19.935Z,13.34
2017-11-03T13:19:47.509Z,13.36
2017-11-03T13:22:15.202Z,13.33
2017-11-03T13:24:42.846Z,13.36
2017-11-03T13:27:10.515Z,13.42
2017-11-03T13:29:38.103Z,13.45
2017-11-03T13:32:05.676Z,13.47
2017-11-03T13:34:33.234Z,13.46
2017-11-03T13:37:00.785Z,13.45
2017-11-03T13:39:28.719Z,13.48
2017-11-03T13:41:56.264Z,13.45
2017-11-03T13:44:23.817Z,13.49
2017-11-03T13:46:51.424Z,13.53
2017-11-03T13:49:18.980Z,13.53
2017-11-03T13:51:46.558Z,13.51
2017-11-03T13:54:14.119Z,13.42
2017-11-03T13:56:41.658Z,13.41
2017-11-03T13:59:09.249Z,13.38
2017-11-03T14:01:36.788Z,13.37
2017-11-03T14:04:04.387Z,13.37
2017-11-03T14:09:05.976Z,13.26
2017-11-03T14:11:33.544Z,13.20
2017-11-03T14:14:01.186Z,13.17
2017-11-03T14:16:28.831Z,13.11
2017-11-03T14:18:56.413Z,13.08
2017-11-03T14:21:24.035Z,13.03
2017-11-03T14:23:51.612Z,13.00
2017-11-03T14:26:19.155Z,12.96
2017-11-03T14:28:46.751Z,12.90
2017-11-03T14:31:14.340Z,12.90
2017-11-03T14:33:41.932Z,12.97
2017-11-03T14:36:09.493Z,13.04
2017-11-03T14:38:37.127Z,13.06
2017-11-03T14:41:04.674Z,13.08
2017-11-03T14:43:32.239Z,13.10
2017-11-03T14:45:59.830Z,13.14
2017-11-03T14:48:27.404Z,13.17
2017-11-03T14:50:55.002Z,13.16
2017-11-03T14:53:22.577Z,13.13
2017-11-03T14:55:50.183Z,13.04
2017-11-03T14:58:17.773Z,12.96
2017-11-03T15:00:45.332Z,12.91
2017-11-03T15:03:12.960Z,12.86
2017-11-03T15:05:40.512Z,12.77
2017-11-03T15:08:08.105Z,12.70
2017-11-03T15:10:35.667Z,12.61
2017-11-03T15:13:03.256Z,12.54
2017-11-03T15:15:30.808Z,12.47
2017-11-03T15:17:58.348Z,12.39
2017-11-03T15:20:26.064Z,12.30
2017-11-03T15:22:53.632Z,12.23
2017-11-03T15:25:21.210Z,12.16
2017-11-03T15:27:48.780Z,12.08
2017-11-03T15:30:16.378Z,12.03
2017-11-03T15:32:43.932Z,11.96
2017-11-03T15:35:11.501Z,11.89
2017-11-03T15:37:39.100Z,11.83
2017-11-03T15:40:06.658Z,11.76
2017-11-03T15:42:34.267Z,11.70
2017-11-03T15:45:01.838Z,11.65
2017-11-03T15:47:29.385Z,11.60
2017-11-03T15:49:56.990Z,11.54
2017-11-03T15:52:24.682Z,11.48
2017-11-03T15:54:52.375Z,11.44
2017-11-03T15:57:19.932Z,11.40
2017-11-03T15:59:47.541Z,11.32
2017-11-03T16:02:15.093Z,11.25
2017-11-03T16:04:42.669Z,11.18
2017-11-03T16:07:10.281Z,11.13
2017-11-03T16:09:37.846Z,11.07
2017-11-03T16:12:05.424Z,11.01
2017-11-03T16:14:33.053Z,10.95
2017-11-03T16:17:00.649Z,10.89
2017-11-03T16:19:28.202Z,10.82
2017-11-03T16:21:55.928Z,10.77
2017-11-03T16:24:23.525Z,10.71
2017-11-03T16:26:51.090Z,10.67
2017-11-03T16:29:18.711Z,10.62
2017-11-03T16:31:46.256Z,10.60
2017-11-03T16:34:13.823Z,10.55
2017-11-03T16:36:41.407Z,10.51
2017-11-03T16:39:09.040Z,10.47
2017-11-03T16:41:36.639Z,10.44
2017-11-03T16:44:04.706Z,10.42
2017-11-03T16:46:32.256Z,10.40
2017-11-03T16:48:59.877Z,10.38
2017-11-03T16:51:27.451Z,10.30
2017-11-03T16:53:55.067Z,10.22
2017-11-03T16:56:22.640Z,10.19
2017-11-03T16:58:50.233Z,10.15
2017-11-03T17:01:17.784Z,10.08
2017-11-03T17:03:45.375Z,10.02
2017-11-03T17:06:12.920Z,9.98
2017-11-03T17:08:40.547Z,9.96
2017-11-03T17:11:08.152Z,9.94
2017-11-03T17:13:35.803Z,9.90
2017-11-03T17:16:03.402Z,9.82
2017-11-03T17:18:31.151Z,9.73
2017-11-03T17:20:58.859Z,9.65
2017-11-03T17:23:26.485Z,9.59
2017-11-03T17:25:54.047Z,9.54
2017-11-03T17:28:21.627Z,9.47
2017-11-03T17:30:49.293Z,9.42
2017-11-03T17:33:16.895Z,9.37
2017-11-03T17:35:44.553Z,9.32
2017-11-03T17:38:12.165Z,9.30
2017-11-03T17:40:39.789Z,9.27
2017-11-03T17:43:07.490Z,9.25
2017-11-03T17:45:35.059Z,9.20
2017-11-03T17:48:02.769Z,9.18
2017-11-03T17:50:30.542Z,9.15
2017-11-03T17:52:58.144Z,9.10
2017-11-03T17:55:25.808Z,9.06
2017-11-03T17:57:54.360Z,9.02
2017-11-03T18:00:21.960Z,9.00
2017-11-03T18:02:49.555Z,8.97
2017-11-03T18:05:17.151Z,8.95
2017-11-03T18:07:44.750Z,8.91
2017-11-03T18:10:12.332Z,8.89
2017-11-03T18:12:39.918Z,8.88
2017-11-03T18:15:07.496Z,8.86
2017-11-03T18:17:35.108Z,8.84
2017-11-03T18:20:02.678Z,8.81
2017-11-03T18:22:30.305Z,8.79
2017-11-03T18:24:57.961Z,8.81
2017-11-03T18:27:25.531Z,8.84
2017-11-03T18:29:53.106Z,8.85
2017-11-03T18:32:20.677Z,8.85
2017-11-03T18:34:48.301Z,8.80
2017-11-03T18:37:15.895Z,8.74
2017-11-03T18:39:43.473Z,8.70
2017-11-03T18:42:11.314Z,8.72
2017-11-03T18:44:39.028Z,8.72
2017-11-03T18:47:06.646Z,8.69
2017-11-03T18:49:34.236Z,8.64
2017-11-03T18:52:01.871Z,8.60
2017-11-03T18:54:29.573Z,8.61
2017-11-03T18:56:57.309Z,8.57
2017-11-03T18:59:24.928Z,8.50
2017-11-03T19:01:53.512Z,8.41
2017-11-03T19:04:21.119Z,8.34
2017-11-03T19:06:48.782Z,8.29
2017-11-03T19:09:16.528Z,8.29
2017-11-03T19:14:18.357Z,8.30
2017-11-03T19:16:46.134Z,8.29
2017-11-03T19:19:13.985Z,8.23
2017-11-03T19:21:41.705Z,8.22
2017-11-03T19:24:09.421Z,8.21
2017-11-03T19:26:37.049Z,8.16
2017-11-03T19:29:05.146Z,8.13
2017-11-03T19:31:33.275Z,8.11
2017-11-03T19:34:01.114Z,8.09
2017-11-03T19:36:28.893Z,8.11
2017-11-03T19:38:56.666Z,8.10
2017-11-03T19:41:24.506Z,8.08
2017-11-03T19:43:52.402Z,8.05
2017-11-03T19:46:20.246Z,7.99
2017-11-03T19:48:47.928Z,7.97
2017-11-03T19:51:16.398Z,7.92
2017-11-03T19:53:44.086Z,7.88
2017-11-03T19:56:11.780Z,7.90
2017-11-03T19:58:39.568Z,7.89
2017-11-03T20:01:07.464Z,7.88
2017-11-03T20:03:35.167Z,7.85
2017-11-03T20:06:02.874Z,7.82
2017-11-03T20:08:30.603Z,7.80
2017-11-03T20:10:58.396Z,7.76
2017-11-03T20:13:26.337Z,7.73
2017-11-03T20:15:54.168Z,7.69
2017-11-03T20:18:21.993Z,7.62
2017-11-03T20:20:49.757Z,7.56
2017-11-03T20:23:17.771Z,7.52
2017-11-03T20:25:45.525Z,7.48
2017-11-03T20:28:13.299Z,7.46
2017-11-03T20:30:42.070Z,7.44
2017-11-03T20:33:09.818Z,7.43
2017-11-03T20:35:37.557Z,7.43
2017-11-03T20:38:06.084Z,7.40
2017-11-03T20:40:33.861Z,7.38
2017-11-03T20:43:01.816Z,7.34
2017-11-03T20:45:29.686Z,7.30
2017-11-03T20:47:57.662Z,7.28
2017-11-03T20:50:25.427Z,7.26
2017-11-03T21:05:53.490Z,7.05
2017-11-03T21:08:21.334Z,7.06
2017-11-03T21:10:49.181Z,7.03
2017-11-03T21:13:17.087Z,7.02
2017-11-03T21:15:44.943Z,6.98
2017-11-03T21:18:12.812Z,6.91
2017-11-03T21:20:40.683Z,6.86
2017-11-03T21:23:08.544Z,6.84
2017-11-03T21:25:36.413Z,6.82
2017-11-03T21:28:05.097Z,6.79
2017-11-03T21:30:33.359Z,6.79
2017-11-03T21:33:01.126Z,6.77
2017-11-03T21:35:28.865Z,6.75
2017-11-03T21:37:56.637Z,6.74
2017-11-03T21:40:24.363Z,6.77
2017-11-03T21:42:52.889Z,6.75
2017-11-03T21:45:20.819Z,6.72
2017-11-03T21:47:48.592Z,6.71
2017-11-03T21:50:16.275Z,6.71
2017-11-03T21:52:43.909Z,6.69
2017-11-03T21:55:11.523Z,6.66
2017-11-03T21:57:39.146Z,6.63
2017-11-03T22:00:06.715Z,6.61
2017-11-03T22:02:34.334Z,6.59
2017-11-03T22:05:02.107Z,6.56
2017-11-03T22:07:29.714Z,6.54
2017-11-03T22:09:57.384Z,6.51
2017-11-03T22:12:24.972Z,6.47
2017-11-03T22:14:52.589Z,6.44
2017-11-03T22:17:20.143Z,6.42
2017-11-03T22:19:47.702Z,6.39
2017-11-03T22:22:15.306Z,6.37
2017-11-03T22:24:43.083Z,6.38
2017-11-03T22:27:10.680Z,6.36
2017-11-03T22:29:38.241Z,6.34
2017-11-03T22:32:05.827Z,6.33
2017-11-03T22:34:33.405Z,6.31
2017-11-03T22:37:01.019Z,6.29
2017-11-03T22:39:28.600Z,6.30
2017-11-03T22:41:56.157Z,6.28
2017-11-03T22:44:23.711Z,6.27
2017-11-03T22:46:51.273Z,6.24
2017-11-03T22:49:18.883Z,6.23
2017-11-03T22:51:46.458Z,6.20
2017-11-03T22:54:14.039Z,6.16
2017-11-03T22:56:41.943Z,6.13
2017-11-03T22:59:09.519Z,6.12
2017-11-03T23:01:37.086Z,6.10
2017-11-03T23:04:04.665Z,6.06
2017-11-03T23:06:32.357Z,6.02
2017-11-03T23:08:59.942Z,6.00
2017-11-03T23:11:27.515Z,5.99
2017-11-03T23:13:55.078Z,5.96
2017-11-03T23:16:22.677Z,5.95
2017-11-03T23:18:50.290Z,5.93
2017-11-03T23:21:17.933Z,5.88
2017-11-03T23:23:45.505Z,5.85
2017-11-03T23:26:13.071Z,5.82
2017-11-03T23:28:40.670Z,5.80
2017-11-03T23:31:08.328Z,5.77
2017-11-03T23:33:35.908Z,5.76
2017-11-03T23:36:03.464Z,5.74
2017-11-03T23:38:31.178Z,5.69
2017-11-03T23:40:58.802Z,5.68
2017-11-03T23:43:26.392Z,5.67
2017-11-03T23:45:53.979Z,5.64
2017-11-03T23:48:21.555Z,5.59
2017-11-03T23:50:49.101Z,5.54
2017-11-03T23:53:16.662Z,5.52
2017-11-03T23:55:44.214Z,5.51
2017-11-03T23:58:11.848Z,5.48
